Time;durP1;ratioP1;P1;durP2;ratioP2;P2;SDS_P1;SDS_P2;PMS_P1;PMS_P2;Temp;Humidity;BMP_temperature;BMP_pressure;BME280_temperature;BME280_humidity;BME280_pressure;Samples;Min_cycle;Max_cycle;Signal;HPM_P1;HPM_P2
2022/01/28 00:01:05;;;;;;;15.95;2.80;;;;;;;3.22;94.83;101476.25;6227455;22;20020;-88
2022/01/28 00:03:37;;;;;;;9.90;2.15;;;;;;;3.16;95.13;101471.75;6226947;22;20142;-86
2022/01/28 00:06:06;;;;;;;6.97;1.83;;;;;;;3.13;95.74;101475.09;6220000;22;20110;-88
2022/01/28 00:08:32;;;;;;;8.15;2.10;;;;;;;3.11;96.32;101489.69;6226377;22;20034;-85
2022/01/28 00:10:59;;;;;;;15.95;2.10;;;;;;;3.11;96.45;101486.22;6249700;22;20028;-88
2022/01/28 00:13:31;;;;;;;7.72;1.80;;;;;;;3.15;95.98;101485.50;6227084;22;20054;-88
2022/01/28 00:38:34;;;;;;;21.08;4.97;;;;;;;3.18;95.37;101500.25;6228198;22;20020;-85
2022/01/28 00:41:01;;;;;;;15.75;1.95;;;;;;;3.20;95.67;101514.13;6221541;22;20073;-87
2022/01/28 00:43:27;;;;;;;13.90;2.42;;;;;;;3.16;95.77;101513.13;6225634;22;20030;-87
2022/01/28 00:45:55;;;;;;;7.57;2.40;;;;;;;3.13;95.65;101513.03;6221114;22;20024;-85
2022/01/28 00:48:22;;;;;;;11.32;1.77;;;;;;;3.12;95.54;101516.44;6224258;22;20027;-87
2022/01/28 00:50:48;;;;;;;8.40;2.90;;;;;;;3.09;95.36;101535.34;6226364;22;20034;-88
2022/01/28 00:53:15;;;;;;;9.60;2.58;;;;;;;3.11;95.61;101527.63;6222574;22;20015;-86
2022/01/28 00:55:42;;;;;;;11.20;2.42;;;;;;;3.14;95.34;101527.72;6249886;22;20470;-88
2022/01/28 00:58:08;;;;;;;7.72;2.10;;;;;;;3.18;95.22;101539.06;6221302;22;20419;-85
2022/01/28 01:00:38;;;;;;;12.35;2.30;;;;;;;3.24;94.96;101545.31;6226699;22;20023;-85
2022/01/28 01:03:04;;;;;;;13.55;5.28;;;;;;;3.25;95.07;101554.84;6223362;22;20097;-87
2022/01/28 01:05:33;;;;;;;11.52;2.45;;;;;;;3.26;95.20;101548.88;6249287;22;20343;-87
2022/01/28 01:08:05;;;;;;;12.23;2.58;;;;;;;3.26;95.47;101541.09;6220752;22;20831;-85
2022/01/28 01:10:33;;;;;;;19.85;2.72;;;;;;;3.31;95.20;101556.78;6224213;22;20106;-88
2022/01/28 01:13:01;;;;;;;9.65;3.08;;;;;;;3.28;95.48;101552.38;6249914;22;20054;-86
2022/01/28 01:15:32;;;;;;;10.95;2.53;;;;;;;3.20;95.62;101561.56;6247475;22;20024;-85
2022/01/28 01:18:05;;;;;;;15.65;4.65;;;;;;;3.09;96.53;101562.88;6225794;22;20020;-85
2022/01/28 01:20:54;;;;;;;10.50;2.97;;;;;;;2.94;97.35;101552.88;6252828;22;20181;-86
2022/01/28 01:23:27;;;;;;;13.63;3.90;;;;;;;2.86;97.90;101575.88;6234111;22;20023;-84
2022/01/28 01:25:59;;;;;;;8.68;2.30;;;;;;;2.81;98.17;101580.84;6232200;22;20016;-87
2022/01/28 01:28:33;;;;;;;9.77;3.00;;;;;;;2.71;98.22;101586.53;6229050;22;20027;-86
2022/01/28 01:31:03;;;;;;;14.35;3.17;;;;;;;2.69;98.40;101592.47;6236215;22;20019;-87
2022/01/28 01:33:39;;;;;;;15.63;2.75;;;;;;;2.67;98.76;101604.44;6255461;22;20705;-84
2022/01/28 01:36:05;;;;;;;17.90;3.33;;;;;;;2.73;98.80;101604.69;6256094;22;20439;-87
2022/01/28 01:38:36;;;;;;;11.18;3.42;;;;;;;2.75;98.04;101606.50;6233020;22;20312;-85
2022/01/28 01:41:06;;;;;;;10.90;3.15;;;;;;;2.73;98.25;101604.69;6255564;22;20027;-87
2022/01/28 01:43:44;;;;;;;12.07;2.30;;;;;;;2.77;98.39;101614.31;6230414;22;20034;-87
2022/01/28 01:46:21;;;;;;;13.00;2.50;;;;;;;2.95;97.36;101620.16;6245088;22;20119;-86
2022/01/28 01:54:18;;;;;;;10.88;2.75;;;;;;;3.20;96.01;101623.69;6229737;22;20077;-87
2022/01/28 01:56:46;;;;;;;9.13;2.17;;;;;;;3.23;96.27;101646.19;6225679;22;20019;-88
2022/01/28 01:59:12;;;;;;;13.48;2.75;;;;;;;3.26;96.03;101628.19;6252995;22;20051;-87
2022/01/28 02:01:39;;;;;;;8.88;2.33;;;;;;;3.28;95.65;101637.75;6228587;22;20513;-88
2022/01/28 02:04:07;;;;;;;8.98;2.55;;;;;;;3.30;95.65;101632.69;6224633;22;20412;-84
2022/01/28 02:06:34;;;;;;;10.90;2.00;;;;;;;3.34;96.25;101644.00;6251064;22;20016;-86
2022/01/28 02:09:00;;;;;;;13.18;2.28;;;;;;;3.32;96.91;101641.34;6226309;22;20034;-87
2022/01/28 02:11:27;;;;;;;10.32;2.65;;;;;;;3.31;96.82;101640.50;6252086;22;20027;-85
2022/01/28 02:13:53;;;;;;;15.15;3.88;;;;;;;3.31;96.28;101642.19;6253990;22;20112;-87
2022/01/28 02:16:20;;;;;;;14.40;4.05;;;;;;;3.31;96.50;101640.50;6221182;22;20694;-88
2022/01/28 02:18:47;;;;;;;8.65;2.00;;;;;;;3.31;96.00;101656.00;6225618;22;20097;-85
2022/01/28 02:21:16;;;;;;;15.90;2.28;;;;;;;3.34;96.03;101664.69;6223792;22;20466;-89
2022/01/28 02:23:46;;;;;;;11.65;4.05;;;;;;;3.35;95.51;101674.22;6226311;22;20023;-89
2022/01/28 02:26:15;;;;;;;12.82;2.55;;;;;;;3.34;95.71;101668.19;6225632;22;20624;-87
2022/01/28 02:28:45;;;;;;;13.85;2.30;;;;;;;3.38;95.50;101677.81;6250691;22;20553;-87
2022/01/28 02:31:12;;;;;;;14.07;3.22;;;;;;;3.41;94.97;101679.66;6229492;22;20474;-87
2022/01/28 02:33:38;;;;;;;7.28;2.30;;;;;;;3.42;94.73;101681.41;6252090;22;20024;-89
2022/01/28 02:36:07;;;;;;;12.27;2.35;;;;;;;3.42;95.04;101686.59;6224837;22;20024;-88
2022/01/28 02:38:35;;;;;;;20.75;4.07;;;;;;;3.40;95.36;101685.63;6228893;22;20450;-87
2022/01/28 02:41:04;;;;;;;11.60;2.10;;;;;;;3.39;95.45;101694.22;6249502;22;20019;-87
2022/01/28 02:43:37;;;;;;;19.10;3.35;;;;;;;3.41;96.27;101708.13;6227053;22;20028;-87
2022/01/28 02:46:09;;;;;;;12.70;3.22;;;;;;;3.39;96.15;101694.22;6222658;22;20051;-89
2022/01/28 02:48:39;;;;;;;14.05;2.60;;;;;;;3.38;95.89;101700.25;6228426;22;20027;-89
2022/01/28 02:51:12;;;;;;;11.68;2.15;;;;;;;3.34;96.13;101696.66;6252536;22;20020;-87
2022/01/28 02:53:42;;;;;;;12.00;2.97;;;;;;;3.29;96.31;101704.22;6249505;22;20106;-87
2022/01/28 02:56:15;;;;;;;10.55;2.65;;;;;;;3.24;96.46;101698.00;6224791;22;20109;-90
2022/01/28 02:58:43;;;;;;;12.07;2.35;;;;;;;3.20;96.35;101700.44;6247898;22;20077;-86
2022/01/28 03:01:12;;;;;;;12.32;2.22;;;;;;;3.18;96.13;101695.22;6251526;22;20467;-84
2022/01/28 03:03:41;;;;;;;12.00;2.25;;;;;;;3.17;95.74;101708.97;6251407;22;20023;-89
2022/01/28 03:06:08;;;;;;;17.85;2.67;;;;;;;3.20;95.56;101701.31;6246022;22;20035;-85
2022/01/28 03:08:34;;;;;;;14.40;2.75;;;;;;;3.23;95.28;101710.88;6224411;22;20383;-89
2022/01/28 03:13:59;;;;;;;16.40;2.15;;;;;;;3.27;95.00;101705.91;6250163;22;20046;-88
2022/01/28 03:16:33;;;;;;;7.25;2.03;;;;;;;3.31;94.38;101717.22;6224500;22;20046;-86
2022/01/28 03:19:12;;;;;;;5.03;2.72;;;;;;;3.31;93.87;101710.38;6225362;22;20073;-87
2022/01/28 03:21:42;;;;;;;10.98;1.52;;;;;;;3.34;93.82;101721.63;6253080;22;20027;-88
2022/01/28 03:24:11;;;;;;;10.02;2.92;;;;;;;3.33;94.03;101720.78;6224318;22;20024;-87
2022/01/28 03:26:38;;;;;;;4.45;1.85;;;;;;;3.34;93.91;101722.53;6248897;22;20031;-85
2022/01/28 03:29:05;;;;;;;6.65;1.90;;;;;;;3.36;93.77;101736.41;6225643;22;20404;-86
2022/01/28 03:31:32;;;;;;;8.95;2.53;;;;;;;3.32;93.90;101734.53;6253482;22;20047;-86
2022/01/28 03:33:59;;;;;;;10.48;2.70;;;;;;;3.24;94.54;101747.16;6252268;22;20027;-89
2022/01/28 03:36:28;;;;;;;12.57;2.22;;;;;;;3.12;95.29;101757.06;6244021;22;20447;-85
2022/01/28 03:38:54;;;;;;;10.88;1.83;;;;;;;2.95;95.91;101741.75;6225281;22;20406;-87
2022/01/28 03:41:23;;;;;;;11.07;1.80;;;;;;;2.79;97.37;101745.44;6222416;22;20108;-85
2022/01/28 03:43:50;;;;;;;16.02;3.78;;;;;;;2.79;97.33;101748.00;6225639;22;20055;-87
2022/01/28 03:46:17;;;;;;;12.50;3.03;;;;;;;2.85;97.42;101754.25;6224773;22;20042;-88
2022/01/28 03:48:44;;;;;;;11.85;2.92;;;;;;;2.94;96.54;101749.44;6245761;22;20023;-88
2022/01/28 03:51:10;;;;;;;8.40;2.45;;;;;;;2.99;95.36;101745.34;6250986;22;20034;-85
2022/01/28 03:53:37;;;;;;;9.52;2.97;;;;;;;3.03;95.18;101751.53;6246004;22;20528;-87
2022/01/28 03:56:03;;;;;;;9.65;1.88;;;;;;;3.09;94.25;101770.75;6246057;22;20058;-87
2022/01/28 03:58:30;;;;;;;11.27;1.83;;;;;;;3.12;94.14;101767.41;6224948;22;20059;-86
2022/01/28 04:00:58;;;;;;;4.97;1.42;;;;;;;3.14;93.10;101770.91;6221919;22;20111;-88
2022/01/28 04:03:40;;;;;;;8.82;2.13;;;;;;;3.13;93.26;101784.69;6225003;22;20023;-84
2022/01/28 04:11:36;;;;;;;16.92;2.60;;;;;;;3.03;92.31;101798.97;6223951;22;20047;-89
2022/01/28 04:14:11;;;;;;;8.95;1.80;;;;;;;2.90;92.73;101788.94;6224330;22;20066;-88
2022/01/28 04:19:23;;;;;;;15.32;2.25;;;;;;;2.75;93.82;101797.84;6225452;22;20666;-84
2022/01/28 04:21:49;;;;;;;10.02;2.42;;;;;;;2.76;94.18;101809.06;6225064;22;20035;-85
2022/01/28 04:24:16;;;;;;;9.43;2.05;;;;;;;2.78;93.81;101813.47;6247432;22;20423;-88
2022/01/28 04:26:43;;;;;;;11.82;1.80;;;;;;;2.79;94.17;101815.25;6221190;22;20019;-86
2022/01/28 04:29:11;;;;;;;15.18;2.70;;;;;;;2.78;94.32;101818.63;6248474;22;20019;-88
2022/01/28 04:31:42;;;;;;;9.30;1.98;;;;;;;2.77;94.78;101818.59;6198957;22;20105;-85
2022/01/28 04:34:12;;;;;;;10.23;2.17;;;;;;;2.76;94.69;101819.41;6248289;22;20031;-88
2022/01/28 04:36:47;;;;;;;10.77;2.65;;;;;;;2.76;94.74;101824.56;6243457;22;20398;-85
2022/01/28 04:39:20;;;;;;;22.15;3.50;;;;;;;2.75;95.25;101828.88;6225257;22;20046;-85
2022/01/28 04:41:56;;;;;;;8.05;2.65;;;;;;;2.77;95.31;101823.75;6223480;22;20468;-85
2022/01/28 04:44:30;;;;;;;19.63;2.65;;;;;;;2.79;95.73;101822.09;6226251;22;20035;-85
2022/01/28 04:47:03;;;;;;;;;;;;;;;2.82;95.12;101827.41;6223548;22;20015;-84
2022/01/28 04:49:40;;;;;;;9.82;2.35;;;;;;;2.82;95.05;101835.19;6220295;22;19927;-85
2022/01/28 04:55:04;;;;;;;13.63;2.40;;;;;;;2.64;95.68;101835.28;6245885;22;20023;-88
2022/01/28 04:57:39;;;;;;;9.45;1.75;;;;;;;2.66;95.22;101844.00;6224014;22;20422;-87
2022/01/28 05:00:15;;;;;;;10.70;2.03;;;;;;;2.75;94.83;101836.63;6225153;22;20078;-85
2022/01/28 05:03:00;;;;;;;20.35;3.15;;;;;;;2.81;94.85;101836.84;6226423;22;20042;-85
2022/01/28 05:08:36;;;;;;;10.93;2.13;;;;;;;2.91;94.78;101853.66;6184996;22;20047;-87
2022/01/28 05:14:11;;;;;;;16.40;3.38;;;;;;;2.95;94.91;101854.69;6225212;22;20027;-87
2022/01/28 05:16:59;;;;;;;17.10;2.65;;;;;;;2.94;94.92;101869.28;6250546;22;20024;-83
2022/01/28 05:25:32;;;;;;;14.37;3.00;;;;;;;3.01;94.28;101860.09;6165066;22;20073;-87
2022/01/28 05:27:52;;;;;;;11.88;2.75;;;;;;;3.03;93.84;101878.28;6251426;22;20020;-86
2022/01/28 05:30:18;;;;;;;17.33;2.78;;;;;;;3.09;92.99;101888.84;6252730;22;20051;-89
2022/01/28 05:32:45;;;;;;;10.23;2.58;;;;;;;3.14;92.77;101879.59;6228369;22;20893;-86
2022/01/28 05:35:11;;;;;;;14.93;2.55;;;;;;;3.16;92.34;101890.03;6228290;22;20026;-87
2022/01/28 05:37:38;;;;;;;12.85;2.70;;;;;;;3.18;92.08;101889.28;6223644;22;20023;-87
2022/01/28 05:40:05;;;;;;;11.30;2.85;;;;;;;3.20;91.98;101894.50;6226130;22;20352;-86
2022/01/28 05:42:32;;;;;;;10.48;2.30;;;;;;;3.22;91.14;101898.03;6225279;22;20128;-89
2022/01/28 05:44:58;;;;;;;19.88;3.85;;;;;;;3.24;90.65;101902.44;6227704;22;20034;-85
2022/01/28 05:47:26;;;;;;;18.80;3.13;;;;;;;3.28;90.15;101912.09;6226518;22;20020;-88
2022/01/28 05:49:53;;;;;;;11.52;4.15;;;;;;;3.33;89.17;101925.22;6224502;22;20027;-86
2022/01/28 05:52:19;;;;;;;14.40;3.47;;;;;;;3.37;90.00;101942.66;6227699;22;20020;-88
2022/01/28 05:54:47;;;;;;;20.33;3.80;;;;;;;3.40;90.59;101952.25;6251456;22;20027;-87
2022/01/28 05:57:14;;;;;;;16.83;3.28;;;;;;;3.42;92.37;101961.84;6225067;22;20028;-86
2022/01/28 05:59:40;;;;;;;9.55;2.58;;;;;;;3.30;95.27;101951.00;6227873;22;20506;-86
2022/01/28 06:02:07;;;;;;;9.50;2.70;;;;;;;3.10;96.32;101956.22;6222039;22;20038;-87
2022/01/28 06:04:35;;;;;;;8.40;3.67;;;;;;;2.89;98.64;101963.03;6225858;22;20047;-87
2022/01/28 06:07:02;;;;;;;11.98;3.28;;;;;;;2.76;99.68;101972.84;6202863;22;20139;-86
2022/01/28 06:09:29;;;;;;;9.63;2.53;;;;;;;2.71;99.61;101976.94;6202610;22;20418;-87
2022/01/28 06:11:57;;;;;;;16.63;3.97;;;;;;;2.70;99.39;101970.00;6229328;22;20024;-86
2022/01/28 06:14:23;;;;;;;12.07;2.90;;;;;;;2.73;99.46;101975.28;6225489;22;20023;-86
2022/01/28 06:16:50;;;;;;;8.88;2.40;;;;;;;2.76;99.15;101977.13;6236336;22;20455;-88
2022/01/28 06:19:22;;;;;;;13.13;2.85;;;;;;;2.78;98.05;101971.22;6240676;22;20028;-84
2022/01/28 06:21:50;;;;;;;14.70;2.95;;;;;;;2.80;97.65;101981.63;6269430;22;20015;-84
2022/01/28 06:24:26;;;;;;;8.50;2.15;;;;;;;2.84;96.68;101995.56;6240565;22;20065;-84
2022/01/28 06:26:55;;;;;;;19.15;4.55;;;;;;;2.90;95.38;101982.91;6244823;22;20258;-84
2022/01/28 06:29:27;;;;;;;9.02;1.77;;;;;;;2.93;95.04;101990.81;6247695;22;20020;-85
2022/01/28 06:31:54;;;;;;;6.15;2.30;;;;;;;2.92;94.35;101991.63;6239580;22;20439;-86
2022/01/28 06:34:22;;;;;;;9.63;2.13;;;;;;;2.90;94.28;101988.09;6236093;23;20027;-83
2022/01/28 06:36:49;;;;;;;10.10;2.50;;;;;;;2.85;93.99;101994.78;6209240;23;20031;-85
2022/01/28 06:39:17;;;;;;;10.30;2.42;;;;;;;2.82;93.85;102005.84;6211465;23;20007;-85
2022/01/28 06:41:45;;;;;;;9.45;3.03;;;;;;;2.79;94.02;102001.44;6238460;23;20255;-85
2022/01/28 06:47:12;;;;;;;10.48;2.28;;;;;;;2.83;93.23;102015.41;6207950;23;20020;-87
2022/01/28 06:49:39;;;;;;;10.30;2.38;;;;;;;2.84;93.15;102014.56;6232030;22;20347;-86
2022/01/28 06:52:12;;;;;;;11.52;2.45;;;;;;;2.83;92.27;102017.97;6232902;22;20020;-85
2022/01/28 06:54:39;;;;;;;11.60;1.95;;;;;;;2.84;93.38;102029.19;6209367;23;20060;-88
2022/01/28 06:57:08;;;;;;;13.20;2.20;;;;;;;2.83;92.73;102035.19;6207021;23;20036;-84
2022/01/28 06:59:41;;;;;;;11.35;4.03;;;;;;;2.85;92.52;102044.78;6211853;23;20098;-86
2022/01/28 07:02:08;;;;;;;14.75;3.17;;;;;;;2.87;93.03;102043.16;6209220;23;20250;-86
2022/01/28 07:04:38;;;;;;;16.67;3.33;;;;;;;2.90;91.79;102053.63;6230664;23;20107;-84
2022/01/28 07:07:06;;;;;;;13.95;3.47;;;;;;;2.93;90.74;102048.63;6178230;23;20053;-85
2022/01/28 07:09:36;;;;;;;15.52;2.75;;;;;;;2.97;91.16;102058.28;6207039;23;20119;-85
2022/01/28 07:12:04;;;;;;;14.60;3.58;;;;;;;2.98;90.47;102054.84;6208774;23;20030;-87
2022/01/28 07:14:32;;;;;;;6.05;1.92;;;;;;;3.00;90.67;102047.19;6200976;23;20106;-88
2022/01/28 07:16:59;;;;;;;13.43;2.97;;;;;;;3.02;90.08;102061.06;6230620;23;20004;-85
2022/01/28 07:19:28;;;;;;;8.00;2.70;;;;;;;3.01;89.44;102059.28;6229102;23;20047;-90
2022/01/28 07:22:05;;;;;;;18.38;2.72;;;;;;;2.98;89.26;102061.75;6186203;23;20008;-87
2022/01/28 07:24:37;;;;;;;9.13;3.42;;;;;;;3.00;89.39;102069.56;6185303;23;20357;-84
2022/01/28 07:27:05;;;;;;;9.63;2.20;;;;;;;2.96;88.46;102072.03;6202191;23;20036;-86
2022/01/28 07:29:37;;;;;;;14.32;2.83;;;;;;;3.02;88.17;102073.13;6208265;23;20458;-86
2022/01/28 07:32:07;;;;;;;13.73;2.67;;;;;;;3.03;88.77;102080.06;6212242;23;20020;-85
2022/01/28 07:34:37;;;;;;;12.05;2.70;;;;;;;3.05;88.79;102081.00;6232307;23;20078;-85
2022/01/28 07:37:05;;;;;;;9.30;2.33;;;;;;;3.08;87.41;102081.16;6232684;23;20031;-84
2022/01/28 07:39:32;;;;;;;11.95;3.17;;;;;;;3.09;87.58;102089.00;6231975;23;20024;-86
2022/01/28 07:41:59;;;;;;;13.60;3.65;;;;;;;3.11;87.79;102089.91;6208425;23;20031;-86
2022/01/28 07:44:26;;;;;;;12.13;3.95;;;;;;;3.11;87.59;102089.91;6231959;23;20043;-85
2022/01/28 07:46:53;;;;;;;13.73;2.55;;;;;;;3.12;87.43;102086.53;6204930;23;20653;-85
2022/01/28 07:49:20;;;;;;;8.25;2.80;;;;;;;3.14;87.87;102099.53;6201821;23;20024;-87
2022/01/28 07:51:49;;;;;;;11.02;3.22;;;;;;;3.17;87.27;102111.72;6175912;23;20444;-84
2022/01/28 07:54:16;;;;;;;11.82;3.17;;;;;;;3.16;86.79;102105.66;6205909;23;20050;-84
2022/01/28 07:56:47;;;;;;;20.02;3.00;;;;;;;3.16;87.04;102110.84;6200854;23;20308;-85
2022/01/28 07:59:14;;;;;;;7.30;3.58;;;;;;;3.05;87.46;102107.78;6204936;23;20027;-85
2022/01/28 08:01:40;;;;;;;19.42;3.50;;;;;;;2.99;88.28;102117.84;6205856;23;20020;-86
2022/01/28 08:04:07;;;;;;;23.75;4.88;;;;;;;3.03;87.67;102124.06;6227938;23;20179;-86
2022/01/28 08:06:35;;;;;;;10.20;4.50;;;;;;;3.07;87.13;102124.25;6230148;23;20311;-86
2022/01/28 08:09:04;;;;;;;11.27;2.25;;;;;;;3.11;86.38;102120.97;6203215;23;20027;-85
2022/01/28 08:11:32;;;;;;;11.32;3.78;;;;;;;3.11;86.01;102133.91;6202357;23;20023;-88
2022/01/28 08:13:58;;;;;;;14.80;2.85;;;;;;;3.03;86.45;102145.63;6227226;23;20027;-83
2022/01/28 08:16:25;;;;;;;17.98;3.00;;;;;;;2.95;86.13;102142.69;6197212;23;20107;-85
2022/01/28 08:18:53;;;;;;;16.08;2.60;;;;;;;3.03;86.69;102139.56;6202577;23;20431;-86
2022/01/28 08:21:19;;;;;;;12.82;3.05;;;;;;;3.15;86.31;102147.88;6228413;23;20023;-88
2022/01/28 08:23:46;;;;;;;12.07;3.28;;;;;;;3.28;85.03;102142.44;6226691;22;20416;-87
2022/01/28 08:26:13;;;;;;;18.48;4.20;;;;;;;3.41;84.07;102146.47;6228791;23;20411;-88
2022/01/28 08:28:41;;;;;;;13.70;2.83;;;;;;;3.48;83.75;102161.47;6224016;23;20255;-87
2022/01/28 08:31:09;;;;;;;10.45;2.72;;;;;;;3.56;82.65;102154.03;6225659;23;20027;-85
2022/01/28 08:33:38;;;;;;;24.42;5.15;;;;;;;3.63;82.15;102155.19;6194906;23;20136;-85
2022/01/28 08:36:05;;;;;;;17.30;3.15;;;;;;;3.68;81.79;102177.00;6225397;23;20089;-84
2022/01/28 08:38:37;;;;;;;16.58;3.47;;;;;;;3.72;82.23;102168.53;6201821;23;20024;-87
2022/01/28 08:41:04;;;;;;;15.88;3.25;;;;;;;3.78;82.49;102166.22;6223329;23;20023;-84
2022/01/28 08:43:34;;;;;;;11.88;2.45;;;;;;;3.80;81.79;102169.75;6227118;23;20028;-88
2022/01/28 08:46:00;;;;;;;24.13;5.70;;;;;;;3.83;81.57;102175.88;6224901;23;20020;-85
2022/01/28 08:48:27;;;;;;;9.52;3.45;;;;;;;3.85;80.51;102187.22;6200984;22;20024;-87
2022/01/28 08:50:56;;;;;;;12.75;3.25;;;;;;;3.86;80.94;102189.88;6224068;23;20024;-85
2022/01/28 08:53:22;;;;;;;11.60;3.65;;;;;;;3.91;80.74;102195.22;6199234;23;20502;-87
2022/01/28 08:55:49;;;;;;;10.48;2.63;;;;;;;3.98;80.36;102192.09;6201795;23;20115;-87
2022/01/28 08:58:16;;;;;;;16.95;4.35;;;;;;;4.05;80.12;102186.34;6220394;23;20050;-86
2022/01/28 09:00:46;;;;;;;13.05;2.92;;;;;;;4.16;80.20;102186.81;6224322;23;20042;-87
2022/01/28 09:03:15;;;;;;;9.80;3.35;;;;;;;4.22;78.93;102206.91;6220952;22;20407;-86
2022/01/28 09:05:42;;;;;;;12.98;3.70;;;;;;;4.23;79.08;102219.06;6224325;23;20036;-84
2022/01/28 09:08:09;;;;;;;20.17;3.08;;;;;;;4.26;79.36;102220.09;6197216;23;20024;-84
2022/01/28 09:10:42;;;;;;;15.35;3.72;;;;;;;4.28;79.04;102231.38;6195688;23;20035;-87
2022/01/28 09:16:10;;;;;;;18.85;3.00;;;;;;;4.31;78.53;102241.00;5093786;27;23051;-83
2022/01/28 09:18:36;;;;;;;19.00;3.00;;;;;;;4.34;78.17;102242.84;5064338;28;20044;-82
2022/01/28 09:21:03;;;;;;;21.17;3.15;;;;;;;4.33;77.80;102247.16;5081018;28;21151;-84
2022/01/28 09:23:30;;;;;;;20.55;3.17;;;;;;;4.37;77.84;102254.22;5058661;28;20048;-86
2022/01/28 09:25:57;;;;;;;15.52;2.92;;;;;;;4.40;78.11;102259.53;5081442;28;20141;-85
2022/01/28 09:28:23;;;;;;;11.18;3.47;;;;;;;4.45;77.85;102264.94;5076576;28;20056;-84
2022/01/28 09:30:52;;;;;;;17.67;2.67;;;;;;;4.53;78.07;102266.13;5063745;28;20055;-85
2022/01/28 09:33:20;;;;;;;12.65;2.92;;;;;;;4.61;77.42;102275.09;5060178;28;20128;-83
2022/01/28 09:35:48;;;;;;;20.60;3.50;;;;;;;4.73;77.06;102272.16;5040875;28;20048;-86
2022/01/28 09:38:15;;;;;;;15.88;4.50;;;;;;;4.78;76.35;102283.63;5064802;28;20132;-83
2022/01/28 09:40:41;;;;;;;17.50;3.55;;;;;;;4.85;76.47;102289.03;5060723;28;20054;-84
2022/01/28 09:43:08;;;;;;;21.52;3.83;;;;;;;4.90;75.31;102288.41;5066780;28;20048;-84
2022/01/28 09:45:36;;;;;;;27.00;3.50;;;;;;;4.78;74.86;102283.63;5071821;28;20036;-83
2022/01/28 09:48:04;;;;;;;16.52;3.17;;;;;;;4.75;75.59;102280.88;5051291;28;20047;-81
2022/01/28 09:50:33;;;;;;;23.55;4.70;;;;;;;4.74;75.68;102291.19;5075159;28;20130;-85
2022/01/28 09:53:02;;;;;;;14.77;3.50;;;;;;;4.76;76.03;102302.53;5063404;28;20063;-86
2022/01/28 09:55:29;;;;;;;21.63;3.72;;;;;;;4.72;75.91;102305.78;5053630;28;20379;-85
2022/01/28 09:58:01;;;;;;;21.67;3.75;;;;;;;4.69;76.35;102297.91;5065551;28;20658;-81
2022/01/28 10:00:28;;;;;;;13.35;3.17;;;;;;;4.64;76.64;102316.75;5062988;28;20518;-83
2022/01/28 10:03:08;;;;;;;13.57;3.67;;;;;;;4.62;76.99;102325.28;5046600;28;20097;-85
2022/01/28 10:05:49;;;;;;;17.02;5.03;;;;;;;4.64;76.86;102332.31;5042458;28;20091;-85
2022/01/28 10:08:18;;;;;;;20.33;5.55;;;;;;;4.68;76.62;102333.34;5072654;28;20481;-85
2022/01/28 10:11:16;;;;;;;19.00;3.10;;;;;;;4.63;76.44;102340.91;5062019;28;20060;-86
2022/01/28 10:13:52;;;;;;;14.73;3.30;;;;;;;4.68;76.36;102346.31;5060095;28;20061;-85
2022/01/28 10:16:22;;;;;;;15.65;4.95;;;;;;;4.82;75.76;102338.22;5095562;27;20039;-84
2022/01/28 10:19:05;;;;;;;19.60;2.95;;;;;;;4.95;75.08;102322.31;5095184;27;20214;-84
2022/01/28 10:21:42;;;;;;;25.40;4.50;;;;;;;5.03;74.42;102333.94;5085986;28;20067;-84
2022/01/28 10:24:21;;;;;;;22.75;5.53;;;;;;;5.20;73.88;102334.59;5078573;28;20879;-88
2022/01/28 10:27:06;;;;;;;19.95;3.75;;;;;;;5.33;72.84;102340.28;5075762;28;20051;-84
2022/01/28 10:29:41;;;;;;;15.27;3.63;;;;;;;5.49;72.75;102331.38;5053375;28;20133;-81
2022/01/28 10:32:28;;;;;;;15.55;3.67;;;;;;;5.46;72.80;102321.75;5077990;28;20449;-86
2022/01/28 10:34:54;;;;;;;23.35;3.53;;;;;;;5.33;72.98;102328.16;5048666;28;20044;-85
2022/01/28 10:37:29;;;;;;;14.73;3.45;;;;;;;5.23;71.72;102329.53;5070680;28;20048;-85
2022/01/28 10:43:00;;;;;;;23.13;6.03;;;;;;;5.07;71.61;102350.47;5048491;28;20083;-86
2022/01/28 10:45:38;;;;;;;18.80;3.10;;;;;;;5.11;72.03;102347.19;5068629;28;20032;-87
2022/01/28 10:48:14;;;;;;;24.85;3.78;;;;;;;5.14;71.27;102340.41;5047078;28;20072;-81
2022/01/28 10:50:40;;;;;;;20.20;3.50;;;;;;;5.10;71.49;102335.06;5057335;28;20047;-87
2022/01/28 10:53:17;;;;;;;24.88;5.18;;;;;;;5.12;71.57;102325.59;5064916;28;20056;-83
2022/01/28 10:55:57;;;;;;;22.67;4.75;;;;;;;5.28;70.84;102333.19;5052712;28;20048;-87
2022/01/28 10:58:27;;;;;;;16.58;5.18;;;;;;;5.49;70.64;102337.47;5070232;28;20049;-87
2022/01/28 11:00:59;;;;;;;24.45;3.75;;;;;;;5.67;70.12;102339.00;5070510;28;20052;-89
2022/01/28 11:03:28;;;;;;;15.85;2.83;;;;;;;5.77;70.27;102347.19;5091345;28;20050;-86
2022/01/28 11:05:58;;;;;;;20.52;4.05;;;;;;;5.91;70.31;102349.44;5078827;28;20616;-82
2022/01/28 11:08:34;;;;;;;17.70;3.50;;;;;;;6.13;69.92;102345.97;5075060;28;20052;-84
2022/01/28 11:11:03;;;;;;;16.58;3.08;;;;;;;6.30;69.57;102356.97;5074822;28;20169;-84
2022/01/28 11:13:36;;;;;;;24.20;4.22;;;;;;;6.44;69.79;102352.25;5075791;28;20044;-85
2022/01/28 11:16:03;;;;;;;21.30;4.75;;;;;;;6.50;68.54;102352.47;5080238;28;20133;-86
2022/01/28 11:18:31;;;;;;;17.88;3.63;;;;;;;6.36;68.82;102344.19;5047084;28;20434;-82
2022/01/28 11:21:13;;;;;;;16.88;4.05;;;;;;;6.27;69.00;102336.03;5058811;28;20055;-88
2022/01/28 11:24:06;;;;;;;15.18;3.45;;;;;;;6.16;68.27;102338.25;5074978;27;20166;-85
2022/01/28 11:27:13;;;;;;;19.38;3.90;;;;;;;6.20;68.27;102342.75;5078454;28;20167;-82
2022/01/28 11:29:40;;;;;;;15.38;3.15;;;;;;;6.31;68.19;102339.63;5068403;28;20068;-82
2022/01/28 11:32:18;;;;;;;14.63;3.05;;;;;;;6.37;67.72;102326.88;5042073;28;20910;-84
2022/01/28 11:35:04;;;;;;;17.60;4.25;;;;;;;6.38;67.59;102334.72;5069803;28;20043;-85
2022/01/28 11:37:33;;;;;;;19.10;3.60;;;;;;;6.44;68.04;102332.34;5071915;28;20059;-82
2022/01/28 11:40:11;;;;;;;17.35;3.47;;;;;;;6.47;67.93;102331.56;5085709;27;20048;-84
2022/01/28 11:42:38;;;;;;;16.63;2.97;;;;;;;6.38;66.76;102329.50;5064098;28;20052;-85
2022/01/28 11:45:09;;;;;;;12.82;3.53;;;;;;;6.29;67.49;102348.28;5074089;28;20440;-84
2022/01/28 11:47:56;;;;;;;14.02;3.08;;;;;;;6.20;66.64;102336.66;5072637;28;20054;-85
2022/01/28 11:50:24;;;;;;;12.75;2.78;;;;;;;6.07;65.90;102341.41;5092203;27;20043;-84
2022/01/28 11:52:58;;;;;;;16.75;4.95;;;;;;;5.96;65.12;102348.78;5106224;27;20079;-85
2022/01/28 11:55:27;;;;;;;20.27;3.60;;;;;;;5.86;66.37;102367.44;5089372;28;20070;-84
2022/01/28 11:57:56;;;;;;;15.50;3.60;;;;;;;5.85;65.01;102357.88;5091808;28;20051;-87
2022/01/28 12:00:47;;;;;;;10.77;2.95;;;;;;;5.71;64.58;102364.25;5093154;28;20048;-85
2022/01/28 12:03:28;;;;;;;26.88;5.28;;;;;;;5.63;64.81;102366.56;5086488;28;20060;-86
2022/01/28 12:05:57;;;;;;;21.20;4.88;;;;;;;5.55;65.77;102375.78;5084998;28;20053;-87
2022/01/28 12:08:30;;;;;;;15.70;3.13;;;;;;;5.56;65.08;102380.16;5070533;28;20117;-84
2022/01/28 12:10:57;;;;;;;19.15;3.30;;;;;;;5.66;65.07;102396.97;5092220;27;20048;-85
2022/01/28 12:13:50;;;;;;;16.13;3.33;;;;;;;5.66;64.29;102396.97;5063369;28;20163;-83
2022/01/28 12:16:30;;;;;;;11.82;3.60;;;;;;;5.68;64.31;102396.22;5082489;28;20056;-84
2022/01/28 12:18:59;;;;;;;15.40;2.88;;;;;;;5.74;64.21;102399.06;5078242;28;20056;-85
2022/01/28 12:21:29;;;;;;;17.25;4.10;;;;;;;5.88;64.01;102406.50;5076468;28;20044;-81
2022/01/28 12:24:32;;;;;;;18.35;3.03;;;;;;;6.02;62.89;102399.25;5061426;28;20044;-85
2022/01/28 12:27:13;;;;;;;9.68;2.53;;;;;;;6.07;61.84;102406.41;5062163;28;20054;-83
2022/01/28 12:29:50;;;;;;;14.50;2.85;;;;;;;6.12;62.37;102404.00;5069402;28;20191;-86
2022/01/28 12:32:38;;;;;;;13.30;2.95;;;;;;;6.03;61.35;102401.91;5078124;28;20075;-85
2022/01/28 12:35:09;;;;;;;18.77;3.38;;;;;;;5.82;61.89;102383.75;5082356;28;20054;-83
2022/01/28 12:37:48;;;;;;;12.77;3.42;;;;;;;5.62;62.44;102390.78;5059204;28;20147;-84
2022/01/28 12:40:24;;;;;;;12.30;3.50;;;;;;;5.44;62.99;102399.59;5062035;28;20079;-87
2022/01/28 12:42:53;;;;;;;14.45;2.45;;;;;;;5.31;63.40;102379.16;5069926;28;20048;-85
2022/01/28 12:45:21;;;;;;;11.05;3.90;;;;;;;5.28;63.95;102390.31;5075073;28;20422;-86